createdAt,value
2023-04-20T00:01:31.935Z,20.90
2023-04-20T00:04:00.035Z,20.89
2023-04-20T00:06:30.261Z,20.86
2023-04-20T00:08:58.272Z,20.86
2023-04-20T00:11:26.738Z,20.85
2023-04-20T00:13:54.909Z,20.84
2023-04-20T00:16:24.273Z,20.84
2023-04-20T00:18:52.703Z,20.82
2023-04-20T00:21:23.911Z,20.60
2023-04-20T00:23:52.239Z,20.81
2023-04-20T00:26:21.221Z,20.79
2023-04-20T00:28:53.832Z,20.78
2023-04-20T00:31:22.175Z,20.67
2023-04-20T00:33:51.645Z,20.75
2023-04-20T00:36:19.672Z,20.72
2023-04-20T00:38:47.703Z,20.73
2023-04-20T00:41:16.004Z,20.73
2023-04-20T00:43:51.601Z,20.74
2023-04-20T00:46:19.858Z,20.71
2023-04-20T00:48:48.200Z,20.71
2023-04-20T00:51:17.641Z,20.69
2023-04-20T00:53:46.285Z,20.68
2023-04-20T00:56:16.456Z,20.67
2023-04-20T00:58:44.706Z,20.67
2023-04-20T01:01:13.095Z,20.67
2023-04-20T01:03:41.702Z,20.65
2023-04-20T01:06:10.146Z,20.64
2023-04-20T01:08:47.051Z,20.59
2023-04-20T01:11:15.591Z,20.63
2023-04-20T01:13:44.243Z,20.63
2023-04-20T01:16:12.863Z,20.63
2023-04-20T01:18:46.478Z,20.58
2023-04-20T01:21:16.538Z,20.61
2023-04-20T01:23:46.717Z,20.61
2023-04-20T01:26:16.538Z,20.59
2023-04-20T01:28:44.570Z,20.59
2023-04-20T01:31:13.618Z,20.59
2023-04-20T01:33:42.046Z,20.59
2023-04-20T01:36:10.891Z,20.59
2023-04-20T01:38:39.151Z,20.58
2023-04-20T01:41:10.701Z,20.59
2023-04-20T01:43:40.054Z,20.58
2023-04-20T01:46:08.575Z,20.58
2023-04-20T01:48:36.606Z,20.05
2023-04-20T01:51:04.757Z,20.59
2023-04-20T01:53:34.055Z,20.58
2023-04-20T01:56:02.103Z,20.58
2023-04-20T01:58:31.684Z,20.53
2023-04-20T02:01:01.950Z,20.57
2023-04-20T02:03:30.336Z,20.58
2023-04-20T02:05:58.297Z,20.56
2023-04-20T02:08:30.987Z,20.56
2023-04-20T02:10:58.962Z,20.55
2023-04-20T02:13:27.176Z,20.56
2023-04-20T02:15:57.073Z,20.56
2023-04-20T02:18:25.578Z,20.55
2023-04-20T02:20:53.573Z,20.51
2023-04-20T02:23:21.588Z,20.53
2023-04-20T02:25:49.597Z,20.53
2023-04-20T02:28:17.601Z,20.51
2023-04-20T02:30:45.812Z,20.53
2023-04-20T02:33:15.505Z,20.53
2023-04-20T02:35:43.767Z,20.53
2023-04-20T02:38:12.249Z,20.51
2023-04-20T02:40:40.368Z,20.51
2023-04-20T02:43:09.070Z,20.50
2023-04-20T02:45:38.124Z,20.50
2023-04-20T02:48:07.550Z,20.50
2023-04-20T02:50:38.430Z,20.49
2023-04-20T02:53:25.825Z,20.45
2023-04-20T02:56:13.385Z,20.44
2023-04-20T02:58:53.178Z,20.32
2023-04-20T03:01:26.020Z,20.43
2023-04-20T03:04:02.201Z,20.43
2023-04-20T03:06:33.432Z,20.43
2023-04-20T03:09:01.997Z,20.42
2023-04-20T03:11:55.311Z,20.24
2023-04-20T03:14:41.516Z,20.39
2023-04-20T03:17:10.008Z,20.39
2023-04-20T03:19:38.010Z,20.39
2023-04-20T03:22:08.050Z,20.18
2023-04-20T03:24:37.570Z,20.39
2023-04-20T03:27:15.382Z,20.38
2023-04-20T03:30:00.391Z,20.37
2023-04-20T03:32:30.750Z,20.37
2023-04-20T03:35:00.208Z,20.36
2023-04-20T03:37:29.566Z,20.33
2023-04-20T03:39:57.578Z,20.37
2023-04-20T03:42:26.415Z,20.36
2023-04-20T03:44:55.758Z,20.36
2023-04-20T03:47:23.761Z,20.36
2023-04-20T03:49:51.990Z,20.36
2023-04-20T03:52:20.011Z,20.35
2023-04-20T03:54:49.469Z,20.36
2023-04-20T03:57:18.410Z,20.35
2023-04-20T03:59:46.528Z,20.35
2023-04-20T04:02:18.559Z,20.36
2023-04-20T04:04:48.030Z,20.24
2023-04-20T04:07:16.113Z,20.37
2023-04-20T04:09:44.961Z,20.37
2023-04-20T04:12:15.748Z,20.38
2023-04-20T04:14:43.952Z,20.38
2023-04-20T04:17:15.258Z,20.39
2023-04-20T04:19:43.780Z,20.40
2023-04-20T04:22:11.769Z,20.42
2023-04-20T04:24:49.369Z,20.44
2023-04-20T04:27:22.307Z,20.48
2023-04-20T04:29:57.739Z,20.51
2023-04-20T04:32:26.030Z,20.56
2023-04-20T04:34:54.885Z,20.55
2023-04-20T04:37:23.046Z,20.67
2023-04-20T04:39:55.066Z,20.74
2023-04-20T04:42:35.498Z,20.81
2023-04-20T04:45:06.448Z,20.86
2023-04-20T04:47:37.425Z,20.91
2023-04-20T04:50:10.571Z,20.97
2023-04-20T04:52:38.659Z,21.03
2023-04-20T04:55:09.259Z,21.07
2023-04-20T04:57:39.351Z,21.13
2023-04-20T05:00:09.699Z,21.17
2023-04-20T05:02:37.925Z,21.07
2023-04-20T05:05:09.427Z,21.27
2023-04-20T05:07:38.421Z,21.30
2023-04-20T05:10:08.093Z,21.13
2023-04-20T05:12:36.164Z,21.39
2023-04-20T05:15:06.171Z,21.45
2023-04-20T05:17:34.286Z,21.47
2023-04-20T05:20:02.303Z,21.50
2023-04-20T05:22:30.387Z,21.54
2023-04-20T05:24:58.370Z,21.57
2023-04-20T05:27:26.540Z,21.61
2023-04-20T05:29:54.526Z,21.64
2023-04-20T05:32:23.944Z,21.69
2023-04-20T05:34:51.955Z,21.71
2023-04-20T05:37:20.002Z,21.74
2023-04-20T05:39:48.033Z,21.77
2023-04-20T05:42:16.078Z,21.81
2023-04-20T05:44:44.051Z,21.82
2023-04-20T05:47:12.138Z,21.84
2023-04-20T05:49:41.610Z,21.85
2023-04-20T05:52:09.577Z,21.90
2023-04-20T05:54:37.674Z,21.91
2023-04-20T05:57:05.895Z,21.94
2023-04-20T05:59:34.041Z,21.96
2023-04-20T06:02:02.482Z,21.88
2023-04-20T06:04:30.898Z,21.98
2023-04-20T06:07:01.273Z,22.01
2023-04-20T06:09:29.327Z,22.05
2023-04-20T06:11:57.353Z,22.07
2023-04-20T06:14:25.415Z,22.10
2023-04-20T06:16:53.281Z,22.13
2023-04-20T06:19:21.289Z,22.15
2023-04-20T06:21:49.592Z,22.12
2023-04-20T06:24:19.154Z,22.20
2023-04-20T06:26:47.119Z,22.23
2023-04-20T06:29:15.246Z,22.26
2023-04-20T06:31:43.436Z,22.29
2023-04-20T06:34:12.312Z,22.29
2023-04-20T06:36:43.508Z,22.34
2023-04-20T06:39:11.930Z,22.37
2023-04-20T06:41:41.302Z,22.38
2023-04-20T06:44:09.356Z,22.18
2023-04-20T06:46:37.387Z,22.44
2023-04-20T06:49:05.476Z,22.46
2023-04-20T06:51:34.652Z,22.48
2023-04-20T06:54:02.626Z,22.52
2023-04-20T06:56:30.634Z,22.56
2023-04-20T06:59:00.183Z,22.59
2023-04-20T07:01:28.364Z,22.59
2023-04-20T07:03:56.754Z,22.65
2023-04-20T07:06:25.393Z,22.69
2023-04-20T07:08:53.410Z,22.73
2023-04-20T07:11:21.340Z,22.78
2023-04-20T07:13:49.306Z,22.81
2023-04-20T07:16:18.742Z,22.86
2023-04-20T07:18:46.770Z,22.88
2023-04-20T07:21:15.944Z,22.89
2023-04-20T07:23:45.119Z,22.94
2023-04-20T07:26:13.388Z,23.02
2023-04-20T07:28:42.010Z,23.04
2023-04-20T07:31:10.028Z,23.08
2023-04-20T07:33:39.426Z,23.09
2023-04-20T07:36:07.729Z,23.15
2023-04-20T07:38:35.748Z,23.18
2023-04-20T07:41:04.002Z,23.21
2023-04-20T07:43:31.956Z,23.23
2023-04-20T07:45:59.929Z,23.26
2023-04-20T07:48:28.045Z,23.29
2023-04-20T07:50:57.413Z,23.33
2023-04-20T07:53:25.313Z,23.35
2023-04-20T07:55:53.319Z,23.37
2023-04-20T07:58:21.963Z,23.40
2023-04-20T08:00:49.973Z,23.43
2023-04-20T08:03:18.041Z,23.45
2023-04-20T08:05:47.213Z,23.47
2023-04-20T08:08:17.879Z,23.50
2023-04-20T08:10:45.896Z,23.51
2023-04-20T08:13:13.841Z,23.53
2023-04-20T08:15:41.812Z,23.55
2023-04-20T08:18:11.337Z,23.55
2023-04-20T08:20:39.439Z,23.55
2023-04-20T08:23:07.540Z,23.57
2023-04-20T08:25:40.060Z,23.58
2023-04-20T08:28:11.862Z,23.57
2023-04-20T08:30:41.454Z,23.58
2023-04-20T08:33:09.419Z,23.53
2023-04-20T08:35:37.486Z,23.58
2023-04-20T08:38:05.438Z,23.57
2023-04-20T08:40:33.650Z,23.60
2023-04-20T08:43:02.969Z,23.60
2023-04-20T08:45:31.523Z,23.60
2023-04-20T08:48:00.204Z,23.59
2023-04-20T08:50:28.322Z,23.59
2023-04-20T08:52:56.673Z,23.59
2023-04-20T08:55:25.557Z,23.59
2023-04-20T08:57:53.679Z,23.58
2023-04-20T09:00:23.429Z,23.60
2023-04-20T09:02:52.907Z,23.60
2023-04-20T09:05:28.499Z,23.61
2023-04-20T09:07:57.889Z,23.62
2023-04-20T09:10:26.833Z,23.91
2023-04-20T09:12:54.891Z,23.79
2023-04-20T09:15:28.834Z,23.79
2023-04-20T09:17:57.470Z,23.78
2023-04-20T09:20:32.653Z,23.79
2023-04-20T09:23:12.966Z,23.80
2023-04-20T09:25:43.535Z,23.80
2023-04-20T09:28:11.616Z,23.80
2023-04-20T09:30:42.657Z,23.56
2023-04-20T09:33:12.611Z,23.81
2023-04-20T09:35:42.008Z,23.82
2023-04-20T09:38:10.571Z,23.84
2023-04-20T09:40:38.582Z,23.82
2023-04-20T09:43:10.883Z,23.83
2023-04-20T09:45:41.155Z,23.81
2023-04-20T09:48:10.034Z,23.79
2023-04-20T09:50:48.319Z,23.77
2023-04-20T09:53:18.461Z,23.75
2023-04-20T09:55:48.054Z,23.74
2023-04-20T09:58:16.652Z,23.72
2023-04-20T10:00:46.167Z,23.71
2023-04-20T10:03:18.188Z,23.72
2023-04-20T10:05:46.533Z,23.71
2023-04-20T10:08:14.811Z,23.70
2023-04-20T10:10:46.916Z,23.68
2023-04-20T10:13:15.930Z,23.69
2023-04-20T10:15:45.293Z,23.68
2023-04-20T10:18:18.766Z,23.67
2023-04-20T10:20:47.176Z,23.66
2023-04-20T10:23:16.344Z,23.61
2023-04-20T10:25:45.455Z,23.65
2023-04-20T10:28:13.571Z,23.57
2023-04-20T10:30:53.298Z,23.62
2023-04-20T10:33:22.790Z,23.62
2023-04-20T10:35:54.973Z,23.59
2023-04-20T10:38:31.679Z,23.60
2023-04-20T10:41:07.376Z,23.59
2023-04-20T10:43:38.905Z,23.59
2023-04-20T10:46:16.517Z,23.59
2023-04-20T10:48:55.152Z,23.58
2023-04-20T10:51:23.830Z,23.56
2023-04-20T10:54:04.556Z,23.55
2023-04-20T10:56:40.018Z,23.53
2023-04-20T10:59:09.023Z,23.51
2023-04-20T11:01:38.896Z,23.51
2023-04-20T11:04:07.340Z,23.53
2023-04-20T11:06:35.779Z,23.52
2023-04-20T11:09:04.246Z,23.52
2023-04-20T11:11:32.103Z,23.52
2023-04-20T11:14:09.737Z,23.52
2023-04-20T11:16:50.881Z,23.50
2023-04-20T11:19:30.614Z,23.50
2023-04-20T11:21:59.188Z,23.49
2023-04-20T11:24:28.908Z,23.49
2023-04-20T11:26:58.022Z,23.30
2023-04-20T11:29:30.904Z,23.49
2023-04-20T11:32:01.902Z,23.49
2023-04-20T11:34:30.131Z,23.41
2023-04-20T11:36:59.528Z,23.53
2023-04-20T11:39:29.612Z,23.55
2023-04-20T11:41:58.172Z,23.56
2023-04-20T11:44:27.318Z,23.57
2023-04-20T11:46:57.315Z,23.57
2023-04-20T11:49:28.272Z,23.59
2023-04-20T11:51:56.493Z,23.59
2023-04-20T11:54:25.393Z,23.61
2023-04-20T11:56:53.360Z,23.60
2023-04-20T11:59:21.864Z,23.63
2023-04-20T12:01:50.028Z,23.64
2023-04-20T12:04:18.360Z,23.65
2023-04-20T12:06:48.323Z,23.68
2023-04-20T12:09:17.070Z,23.69
2023-04-20T12:11:45.553Z,23.62
2023-04-20T12:14:13.577Z,23.50
2023-04-20T12:16:41.649Z,23.72
2023-04-20T12:19:09.625Z,23.72
2023-04-20T12:21:37.645Z,23.75
2023-04-20T12:24:07.920Z,23.78
2023-04-20T12:26:38.765Z,23.80
2023-04-20T12:29:07.534Z,23.82
2023-04-20T12:31:36.562Z,23.84
2023-04-20T12:34:04.874Z,23.68
2023-04-20T12:36:34.878Z,23.79
2023-04-20T12:39:04.190Z,23.90
2023-04-20T12:41:34.391Z,23.90
2023-04-20T12:44:05.114Z,23.90
2023-04-20T12:46:33.606Z,23.90
2023-04-20T12:49:01.537Z,23.88
2023-04-20T12:51:29.755Z,23.86
2023-04-20T12:53:57.713Z,23.91
2023-04-20T12:56:28.835Z,23.90
2023-04-20T12:58:58.194Z,23.92
2023-04-20T13:01:26.654Z,23.92
2023-04-20T13:03:54.797Z,23.92
2023-04-20T13:06:22.916Z,23.90
2023-04-20T13:08:51.523Z,23.92
2023-04-20T13:11:19.490Z,23.72
2023-04-20T13:13:47.503Z,23.92
2023-04-20T13:16:16.929Z,23.93
2023-04-20T13:18:45.278Z,23.95
2023-04-20T13:21:13.196Z,23.94
2023-04-20T13:23:41.282Z,23.92
2023-04-20T13:28:37.693Z,23.97
2023-04-20T13:31:06.332Z,23.98
2023-04-20T13:33:35.789Z,23.98
2023-04-20T13:36:04.050Z,23.74
2023-04-20T13:38:32.107Z,23.98
2023-04-20T13:41:00.074Z,23.96
2023-04-20T13:43:28.089Z,23.98
2023-04-20T13:45:56.056Z,23.98
2023-04-20T13:48:24.086Z,23.91
2023-04-20T13:50:54.221Z,23.98
2023-04-20T13:53:22.687Z,23.98
2023-04-20T13:55:50.959Z,23.98
2023-04-20T13:58:18.980Z,23.98
2023-04-20T14:00:47.569Z,23.98
2023-04-20T14:03:15.849Z,23.98
2023-04-20T14:05:44.852Z,23.98
2023-04-20T14:08:14.861Z,23.96
2023-04-20T14:10:42.957Z,23.97
2023-04-20T14:13:10.916Z,23.96
2023-04-20T14:15:39.077Z,23.97
2023-04-20T14:18:07.283Z,23.97
2023-04-20T14:20:35.486Z,23.91
2023-04-20T14:23:03.461Z,23.98
2023-04-20T14:25:32.828Z,23.96
2023-04-20T14:28:00.718Z,23.98
2023-04-20T14:30:28.826Z,23.98
2023-04-20T14:32:58.045Z,23.98
2023-04-20T14:35:27.671Z,23.99
2023-04-20T14:37:55.640Z,24.00
2023-04-20T14:40:23.773Z,23.84
2023-04-20T14:42:53.252Z,24.00
2023-04-20T14:45:22.256Z,24.00
2023-04-20T14:47:54.151Z,23.85
2023-04-20T14:50:23.343Z,24.01
2023-04-20T14:52:51.208Z,24.01
2023-04-20T14:55:23.337Z,24.03
2023-04-20T14:57:56.088Z,24.02
2023-04-20T15:00:25.188Z,24.02
2023-04-20T15:02:56.318Z,24.03
2023-04-20T15:05:24.908Z,24.04
2023-04-20T15:07:53.157Z,24.04
2023-04-20T15:10:21.731Z,24.05
2023-04-20T15:12:50.335Z,24.06
2023-04-20T15:15:19.910Z,24.05
2023-04-20T15:17:48.015Z,24.05
2023-04-20T15:20:16.502Z,24.06
2023-04-20T15:22:44.592Z,24.06
2023-04-20T15:25:12.927Z,24.07
2023-04-20T15:27:41.032Z,24.07
2023-04-20T15:30:09.735Z,24.07
2023-04-20T15:32:40.231Z,24.09
2023-04-20T15:35:08.516Z,24.09
2023-04-20T15:37:36.477Z,24.08
2023-04-20T15:40:05.477Z,24.08
2023-04-20T15:42:33.916Z,24.08
2023-04-20T15:45:01.969Z,24.09
2023-04-20T15:47:29.953Z,24.09
2023-04-20T15:50:01.725Z,24.09
2023-04-20T15:52:30.611Z,24.06
2023-04-20T15:54:58.664Z,23.94
2023-04-20T15:57:26.695Z,24.04
2023-04-20T15:59:54.707Z,24.03
2023-04-20T16:02:22.859Z,24.01
2023-04-20T16:04:51.027Z,24.01
2023-04-20T16:07:21.004Z,24.01
2023-04-20T16:09:48.920Z,24.00
2023-04-20T16:12:16.851Z,24.01
2023-04-20T16:14:44.885Z,24.02
2023-04-20T16:17:12.812Z,24.00
2023-04-20T16:19:41.481Z,23.98
2023-04-20T16:22:09.407Z,23.94
2023-04-20T16:24:39.341Z,23.94
2023-04-20T16:27:07.501Z,23.91
2023-04-20T16:29:35.491Z,23.89
2023-04-20T16:32:03.478Z,23.84
2023-04-20T16:34:31.661Z,23.83
2023-04-20T16:37:00.730Z,23.79
2023-04-20T16:39:28.754Z,23.76
2023-04-20T16:41:58.736Z,23.74
2023-04-20T16:44:26.777Z,23.71
2023-04-20T16:46:54.882Z,23.67
2023-04-20T16:49:22.917Z,23.65
2023-04-20T16:51:50.948Z,23.61
2023-04-20T16:54:19.042Z,23.59
2023-04-20T16:56:47.217Z,23.56
2023-04-20T16:59:16.593Z,23.54
2023-04-20T17:01:44.612Z,23.52
2023-04-20T17:04:12.716Z,23.49
2023-04-20T17:06:40.870Z,23.46
2023-04-20T17:09:11.246Z,23.44
2023-04-20T17:11:39.943Z,23.40
2023-04-20T17:14:09.642Z,23.35
2023-04-20T17:16:39.019Z,23.34
2023-04-20T17:19:07.036Z,23.33
2023-04-20T17:21:34.989Z,23.30
2023-04-20T17:24:03.022Z,23.29
2023-04-20T17:26:31.116Z,23.27
2023-04-20T17:28:59.145Z,23.24
2023-04-20T17:31:27.266Z,23.20
2023-04-20T17:33:56.672Z,23.21
2023-04-20T17:36:24.756Z,23.18
2023-04-20T17:38:52.710Z,23.17
2023-04-20T17:41:20.790Z,23.14
2023-04-20T17:43:51.368Z,23.13
2023-04-20T17:46:19.546Z,23.10
2023-04-20T17:48:47.576Z,23.09
2023-04-20T17:51:16.907Z,23.07
2023-04-20T17:53:45.097Z,23.05
2023-04-20T17:56:13.178Z,22.99
2023-04-20T17:58:41.160Z,23.00
2023-04-20T18:01:09.245Z,22.99
2023-04-20T18:03:37.466Z,22.97
2023-04-20T18:06:06.002Z,22.97
2023-04-20T18:08:35.657Z,22.96
2023-04-20T18:11:05.544Z,22.97
2023-04-20T18:13:33.610Z,22.97
2023-04-20T18:16:06.632Z,22.97
2023-04-20T18:18:35.919Z,22.97
2023-04-20T18:21:04.823Z,22.97
2023-04-20T18:23:33.408Z,22.95
2023-04-20T18:26:03.233Z,22.95
2023-04-20T18:28:31.357Z,22.98
2023-04-20T18:31:00.945Z,22.93
2023-04-20T18:33:29.028Z,22.97
2023-04-20T18:35:56.936Z,22.97
2023-04-20T18:38:24.938Z,22.96
2023-04-20T18:40:53.204Z,22.98
2023-04-20T18:43:22.620Z,22.98
2023-04-20T18:45:50.741Z,22.94
2023-04-20T18:48:18.911Z,22.94
2023-04-20T18:50:48.045Z,22.94
2023-04-20T18:53:16.780Z,22.92
2023-04-20T18:55:44.845Z,22.91
2023-04-20T18:58:12.874Z,22.90
2023-04-20T19:00:42.725Z,22.66
2023-04-20T19:03:13.126Z,22.88
2023-04-20T19:05:41.399Z,22.86
2023-04-20T19:08:09.276Z,22.84
2023-04-20T19:10:37.240Z,22.82
2023-04-20T19:13:05.156Z,22.77
2023-04-20T19:15:33.552Z,22.79
2023-04-20T19:18:02.996Z,22.82
2023-04-20T19:20:31.021Z,22.74
2023-04-20T19:22:59.082Z,22.76
2023-04-20T19:25:27.128Z,22.76
2023-04-20T19:27:55.376Z,22.52
2023-04-20T19:30:23.450Z,22.73
2023-04-20T19:32:51.557Z,22.71
2023-04-20T19:35:21.190Z,22.72
2023-04-20T19:37:49.145Z,22.68
2023-04-20T19:40:17.338Z,22.67
2023-04-20T19:42:45.361Z,22.65
2023-04-20T19:45:13.256Z,22.64
2023-04-20T19:47:41.556Z,22.63
2023-04-20T19:50:09.809Z,22.62
2023-04-20T19:52:39.255Z,22.54
2023-04-20T19:55:08.196Z,22.57
2023-04-20T19:57:36.198Z,22.57
2023-04-20T20:00:07.426Z,22.50
2023-04-20T20:02:41.309Z,22.55
2023-04-20T20:05:10.100Z,22.52
2023-04-20T20:07:39.756Z,22.52
2023-04-20T20:10:08.447Z,22.35
2023-04-20T20:12:36.305Z,22.48
2023-04-20T20:15:04.826Z,22.48
2023-04-20T20:17:32.984Z,22.46
2023-04-20T20:20:01.926Z,22.45
2023-04-20T20:22:30.043Z,22.43
2023-04-20T20:25:01.178Z,22.43
2023-04-20T20:27:29.446Z,22.42
2023-04-20T20:29:57.341Z,22.40
2023-04-20T20:32:25.901Z,22.40
2023-04-20T20:34:53.853Z,22.38
2023-04-20T20:37:22.151Z,22.38
2023-04-20T20:39:50.362Z,22.37
2023-04-20T20:42:20.147Z,22.39
2023-04-20T20:44:48.081Z,22.38
2023-04-20T20:47:16.079Z,22.38
2023-04-20T20:49:44.219Z,22.36
2023-04-20T20:52:12.164Z,22.39
2023-04-20T20:54:40.120Z,22.37
2023-04-20T20:57:08.136Z,22.18
2023-04-20T20:59:37.510Z,22.36
2023-04-20T21:02:05.623Z,22.22
2023-04-20T21:04:33.840Z,22.37
2023-04-20T21:07:01.880Z,22.37
2023-04-20T21:09:30.117Z,22.37
2023-04-20T21:12:00.106Z,22.37
2023-04-20T21:14:28.193Z,22.37
2023-04-20T21:16:57.664Z,22.37
2023-04-20T21:19:25.820Z,22.36
2023-04-20T21:21:53.883Z,22.36
2023-04-20T21:24:22.577Z,22.36
2023-04-20T21:26:50.556Z,22.36
2023-04-20T21:29:18.675Z,22.32
2023-04-20T21:31:46.949Z,22.22
2023-04-20T21:34:16.362Z,22.29
2023-04-20T21:36:44.270Z,22.22
2023-04-20T21:39:12.210Z,22.24
2023-04-20T21:41:40.512Z,22.22
2023-04-20T21:44:08.499Z,22.19
2023-04-20T21:46:36.597Z,22.17
2023-04-20T21:49:04.669Z,22.15
2023-04-20T21:51:34.047Z,22.12
2023-04-20T21:54:02.074Z,22.04
2023-04-20T21:56:30.255Z,22.07
2023-04-20T21:58:58.341Z,22.05
2023-04-20T22:01:26.491Z,22.04
2023-04-20T22:03:54.639Z,22.00
2023-04-20T22:06:23.228Z,21.98
2023-04-20T22:08:52.613Z,21.95
2023-04-20T22:11:21.152Z,21.86
2023-04-20T22:13:49.158Z,21.91
2023-04-20T22:16:18.050Z,21.89
2023-04-20T22:18:46.048Z,21.91
2023-04-20T22:21:13.994Z,21.90
2023-04-20T22:23:41.885Z,21.88
2023-04-20T22:26:11.309Z,21.88
2023-04-20T22:28:39.339Z,21.85
2023-04-20T22:31:07.318Z,21.85
2023-04-20T22:33:35.520Z,21.78
2023-04-20T22:36:04.465Z,21.81
2023-04-20T22:38:32.963Z,21.78
2023-04-20T22:41:01.329Z,21.77
2023-04-20T22:43:30.689Z,21.76
2023-04-20T22:45:58.853Z,21.74
2023-04-20T22:48:26.928Z,21.73
2023-04-20T22:50:55.327Z,21.70
2023-04-20T22:53:23.286Z,21.69
2023-04-20T22:55:51.270Z,21.69
2023-04-20T22:58:19.273Z,21.66
2023-04-20T23:00:48.599Z,21.65
2023-04-20T23:03:16.760Z,21.64
2023-04-20T23:05:45.049Z,21.62
2023-04-20T23:08:13.578Z,21.62
2023-04-20T23:10:41.899Z,21.60
2023-04-20T23:13:16.823Z,21.59
2023-04-20T23:15:44.918Z,21.59
2023-04-20T23:18:14.410Z,21.59
2023-04-20T23:20:42.538Z,21.54
2023-04-20T23:23:10.858Z,21.56
2023-04-20T23:25:39.319Z,21.54
2023-04-20T23:28:07.333Z,21.53
2023-04-20T23:30:35.283Z,21.52
2023-04-20T23:33:03.333Z,21.51
2023-04-20T23:35:32.827Z,21.51
2023-04-20T23:38:01.048Z,21.48
2023-04-20T23:40:28.902Z,21.48
2023-04-20T23:42:56.862Z,21.43
2023-04-20T23:45:24.935Z,21.44
2023-04-20T23:47:52.987Z,20.94
2023-04-20T23:50:21.163Z,21.42
2023-04-20T23:52:50.470Z,21.41
2023-04-20T23:55:18.549Z,21.40
2023-04-20T23:57:47.853Z,21.39
